Time;durP1;ratioP1;P1;durP2;ratioP2;P2;SDS_P1;SDS_P2;PMS_P1;PMS_P2;Temp;Humidity;BMP_temperature;BMP_pressure;BME280_temperature;BME280_humidity;BME280_pressure;Samples;Min_cycle;Max_cycle;Signal;HPM_P1;HPM_P2
2021/05/02 00:01:32;;;;;;;43.23;23.93;;;6.90;99.90;;;;;;4940071;29;20027;-85
2021/05/02 00:03:57;;;;;;;37.70;23.67;;;6.90;99.90;;;;;;4964886;28;20029;-85
2021/05/02 00:06:23;;;;;;;45.43;24.80;;;6.90;99.90;;;;;;4945280;29;20485;-86
2021/05/02 00:08:49;;;;;;;38.70;24.00;;;6.90;99.90;;;;;;4967331;28;20031;-87
2021/05/02 00:11:14;;;;;;;37.07;23.07;;;6.90;99.90;;;;;;4939991;28;20039;-86
2021/05/02 00:13:40;;;;;;;40.43;24.13;;;6.90;99.90;;;;;;4960594;28;20061;-86
2021/05/02 00:16:07;;;;;;;39.00;24.20;;;6.90;99.90;;;;;;4956640;28;20042;-86
2021/05/02 00:18:34;;;;;;;35.00;21.40;;;6.90;99.90;;;;;;4957922;28;20113;-85
2021/05/02 00:21:04;;;;;;;36.40;22.97;;;6.80;99.90;;;;;;4956732;28;20030;-86
2021/05/02 00:23:35;;;;;;;36.27;22.10;;;6.80;99.90;;;;;;4959374;28;20126;-86
2021/05/02 00:26:01;;;;;;;34.77;22.63;;;6.80;99.90;;;;;;4958142;28;20031;-86
2021/05/02 00:28:28;;;;;;;35.53;22.37;;;6.70;99.90;;;;;;4957599;28;20031;-85
2021/05/02 00:30:55;;;;;;;33.60;20.97;;;6.70;99.90;;;;;;4959933;28;20042;-85
2021/05/02 00:33:22;;;;;;;31.67;21.27;;;6.70;99.90;;;;;;4954911;28;20030;-85
2021/05/02 00:35:50;;;;;;;34.07;21.50;;;6.70;99.90;;;;;;4968886;28;20384;-85
2021/05/02 00:38:15;;;;;;;33.20;21.77;;;6.70;99.90;;;;;;4964794;28;20062;-85
2021/05/02 00:40:43;;;;;;;30.53;20.67;;;6.60;99.90;;;;;;4968775;28;20117;-85
2021/05/02 00:43:13;;;;;;;29.50;19.97;;;6.60;99.90;;;;;;4947553;28;20031;-85
2021/05/02 00:46:08;;;;;;;29.60;19.70;;;6.60;99.90;;;;;;4955677;28;20038;-85
2021/05/02 00:48:48;;;;;;;31.43;19.30;;;6.60;99.90;;;;;;4937746;28;20030;-85
2021/05/02 00:51:16;;;;;;;27.63;18.47;;;6.60;99.90;;;;;;4969591;28;20366;-85
2021/05/02 00:53:53;;;;;;;32.57;21.17;;;6.60;99.90;;;;;;4956313;28;20025;-85
2021/05/02 00:56:25;;;;;;;30.40;19.03;;;6.50;99.90;;;;;;4956274;28;20399;-85
2021/05/02 00:59:05;;;;;;;32.67;21.40;;;6.50;99.90;;;;;;4956884;28;20034;-85
2021/05/02 01:01:38;;;;;;;35.40;21.00;;;6.50;99.90;;;;;;4954567;29;20520;-85
2021/05/02 01:04:06;;;;;;;32.10;22.00;;;6.50;99.90;;;;;;4955750;28;20023;-85
2021/05/02 01:06:32;;;;;;;35.70;21.50;;;6.40;99.90;;;;;;4955048;28;20075;-85
2021/05/02 01:09:03;;;;;;;32.37;20.10;;;6.40;99.90;;;;;;4962361;28;20038;-86
2021/05/02 01:11:30;;;;;;;30.40;21.23;;;6.40;99.90;;;;;;4939777;28;20043;-85
2021/05/02 01:13:58;;;;;;;31.03;21.30;;;6.40;99.90;;;;;;4960629;28;20501;-85
2021/05/02 01:16:26;;;;;;;35.23;22.33;;;6.40;99.90;;;;;;4947591;29;20035;-85
2021/05/02 01:18:54;;;;;;;31.60;19.53;;;6.40;99.90;;;;;;4968460;28;20115;-85
2021/05/02 01:21:31;;;;;;;30.07;20.77;;;6.40;99.90;;;;;;4956707;28;20049;-85
2021/05/02 01:23:59;;;;;;;32.80;21.70;;;6.40;99.90;;;;;;4951172;29;20023;-85
2021/05/02 01:26:26;;;;;;;31.20;19.73;;;6.30;99.90;;;;;;4964133;28;20026;-85
2021/05/02 01:28:53;;;;;;;36.23;22.60;;;6.30;99.90;;;;;;4974480;28;20082;-84
2021/05/02 01:31:19;;;;;;;33.03;21.87;;;6.30;99.90;;;;;;4955967;28;20455;-85
2021/05/02 01:33:46;;;;;;;31.90;20.37;;;6.30;99.90;;;;;;4958626;28;20058;-85
2021/05/02 01:36:12;;;;;;;30.13;21.13;;;6.30;99.90;;;;;;4957279;28;20031;-85
2021/05/02 01:38:39;;;;;;;30.53;20.63;;;6.30;99.90;;;;;;4956878;28;20058;-85
2021/05/02 01:41:05;;;;;;;29.13;19.00;;;6.30;99.90;;;;;;4957202;28;20117;-85
2021/05/02 01:43:30;;;;;;;32.33;19.63;;;6.30;99.90;;;;;;4941203;28;20114;-85
2021/05/02 01:45:56;;;;;;;34.13;21.60;;;6.30;99.90;;;;;;4970265;28;20075;-85
2021/05/02 01:48:23;;;;;;;32.13;21.27;;;6.20;99.90;;;;;;4960233;28;20026;-85
2021/05/02 01:50:57;;;;;;;33.27;21.43;;;6.30;99.90;;;;;;4950194;28;20026;-85
2021/05/02 01:53:22;;;;;;;31.03;21.33;;;6.30;99.90;;;;;;4958351;28;20051;-85
2021/05/02 01:55:52;;;;;;;34.93;22.40;;;6.30;99.90;;;;;;4970807;28;20057;-85
2021/05/02 01:58:19;;;;;;;31.47;21.37;;;6.30;99.90;;;;;;4960949;28;20133;-85
2021/05/02 02:01:06;;;;;;;33.23;20.67;;;6.30;99.90;;;;;;4963877;28;20519;-85
2021/05/02 02:03:32;;;;;;;32.53;21.03;;;6.30;99.90;;;;;;4963997;28;20605;-85
2021/05/02 02:05:58;;;;;;;34.43;21.07;;;6.30;99.90;;;;;;4952662;29;20027;-85
2021/05/02 02:08:24;;;;;;;31.87;21.80;;;6.30;99.90;;;;;;4954869;28;20078;-84
2021/05/02 02:10:51;;;;;;;33.03;21.10;;;6.20;99.90;;;;;;4966127;28;20073;-85
2021/05/02 02:13:18;;;;;;;32.33;21.80;;;6.20;99.90;;;;;;4959497;28;20034;-85
2021/05/02 02:15:44;;;;;;;33.17;21.50;;;6.20;99.90;;;;;;4972591;28;20072;-85
2021/05/02 02:18:12;;;;;;;35.17;21.93;;;6.10;99.90;;;;;;4957072;28;20023;-85
2021/05/02 02:20:59;;;;;;;33.03;22.20;;;6.20;99.90;;;;;;4950841;28;20507;-85
2021/05/02 02:23:31;;;;;;;34.27;22.23;;;6.10;99.90;;;;;;4974443;28;20353;-85
2021/05/02 02:26:03;;;;;;;32.05;21.25;;;6.10;99.90;;;;;;4941755;28;20037;-85
2021/05/02 02:28:30;;;;;;;36.50;22.02;;;6.20;99.90;;;;;;4956419;28;20121;-85
2021/05/02 02:30:57;;;;;;;37.63;23.60;;;6.20;99.90;;;;;;4961809;28;20108;-85
2021/05/02 02:33:27;;;;;;;40.77;25.23;;;6.20;99.90;;;;;;4951006;28;20031;-85
2021/05/02 02:35:53;;;;;;;39.07;25.10;;;6.20;99.90;;;;;;4972874;28;20039;-86
2021/05/02 02:38:22;;;;;;;38.53;23.37;;;6.20;99.90;;;;;;4956578;28;20030;-85
2021/05/02 02:40:51;;;;;;;37.70;24.70;;;6.20;99.90;;;;;;4967384;28;20119;-85
2021/05/02 02:43:22;;;;;;;36.70;24.17;;;6.20;99.90;;;;;;4959296;28;20393;-86
2021/05/02 02:45:51;;;;;;;38.33;24.67;;;6.20;99.90;;;;;;4973879;28;20492;-85
2021/05/02 02:48:23;;;;;;;38.50;24.57;;;6.20;99.90;;;;;;4959073;28;20019;-85
2021/05/02 02:50:51;;;;;;;36.17;22.95;;;6.20;99.90;;;;;;4958646;28;20030;-85
2021/05/02 02:53:20;;;;;;;36.33;24.00;;;6.20;99.90;;;;;;4958334;28;20023;-85
2021/05/02 02:56:13;;;;;;;35.63;24.50;;;6.20;99.90;;;;;;4961382;28;20092;-84
2021/05/02 02:59:11;;;;;;;35.38;23.48;;;6.20;99.90;;;;;;4960268;28;20034;-85
2021/05/02 03:01:40;;;;;;;36.93;23.73;;;6.20;99.90;;;;;;4952376;28;20038;-85
2021/05/02 03:04:09;;;;;;;42.33;26.80;;;6.10;99.90;;;;;;4959751;28;20022;-85
2021/05/02 03:06:35;;;;;;;39.30;23.67;;;6.10;99.90;;;;;;4953446;29;20059;-85
2021/05/02 03:09:01;;;;;;;38.70;25.77;;;6.10;99.90;;;;;;4967395;28;20109;-85
2021/05/02 03:11:26;;;;;;;38.10;25.60;;;6.00;99.90;;;;;;4945549;29;20444;-84
2021/05/02 03:13:53;;;;;;;40.10;26.17;;;6.10;99.90;;;;;;4970318;28;20029;-85
2021/05/02 03:16:24;;;;;;;40.13;25.87;;;6.10;99.90;;;;;;4959045;28;20034;-85
2021/05/02 03:19:12;;;;;;;37.23;24.27;;;6.10;99.90;;;;;;4958710;28;20055;-85
2021/05/02 03:21:46;;;;;;;36.60;25.40;;;6.10;99.90;;;;;;4959372;28;20447;-86
2021/05/02 03:24:14;;;;;;;41.03;24.60;;;6.20;99.90;;;;;;4958957;28;20476;-86
2021/05/02 03:26:41;;;;;;;36.17;23.80;;;6.20;99.90;;;;;;4976495;28;20031;-85
2021/05/02 03:29:10;;;;;;;36.43;24.10;;;6.10;99.90;;;;;;4948203;28;20035;-85
2021/05/02 03:31:38;;;;;;;40.93;25.20;;;6.10;99.90;;;;;;4970592;28;20027;-85
2021/05/02 03:34:09;;;;;;;39.87;24.60;;;6.10;99.90;;;;;;4940684;28;20042;-86
2021/05/02 03:36:51;;;;;;;34.77;24.17;;;6.10;99.90;;;;;;4958966;28;20031;-86
2021/05/02 03:39:17;;;;;;;38.07;25.00;;;6.10;99.90;;;;;;4964117;28;20366;-86
2021/05/02 03:41:43;;;;;;;35.07;23.97;;;6.20;99.90;;;;;;4954985;28;20116;-86
2021/05/02 03:44:08;;;;;;;35.97;24.17;;;6.20;99.90;;;;;;4941191;28;20055;-86
2021/05/02 03:46:34;;;;;;;38.03;25.23;;;6.10;99.90;;;;;;4961020;28;20034;-86
2021/05/02 03:49:06;;;;;;;39.37;25.80;;;6.10;99.90;;;;;;4966880;28;20024;-85
2021/05/02 03:51:36;;;;;;;39.63;24.63;;;6.20;99.90;;;;;;4955334;28;20117;-86
2021/05/02 03:54:03;;;;;;;32.17;21.80;;;6.20;99.90;;;;;;4956504;28;20110;-86
2021/05/02 03:56:37;;;;;;;38.43;25.67;;;6.20;99.90;;;;;;4957503;28;20412;-85
2021/05/02 03:59:25;;;;;;;36.43;24.20;;;6.20;99.90;;;;;;4972846;28;20031;-85
2021/05/02 04:01:53;;;;;;;34.57;23.80;;;6.30;99.90;;;;;;4960022;28;20035;-85
2021/05/02 04:04:22;;;;;;;35.07;24.43;;;6.30;99.90;;;;;;4957763;28;20042;-85
2021/05/02 04:06:48;;;;;;;37.50;25.90;;;6.30;99.90;;;;;;4957888;28;20178;-85
2021/05/02 04:09:15;;;;;;;38.27;26.93;;;6.30;99.90;;;;;;4974586;28;20030;-86
2021/05/02 04:11:41;;;;;;;39.93;26.97;;;6.40;99.90;;;;;;4957617;28;20037;-85
2021/05/02 04:14:09;;;;;;;38.90;25.70;;;6.40;99.90;;;;;;4955911;28;20027;-85
2021/05/02 04:16:35;;;;;;;35.67;25.40;;;6.50;99.90;;;;;;4954707;28;20126;-86
2021/05/02 04:19:01;;;;;;;34.17;24.53;;;6.50;99.90;;;;;;4962130;28;20058;-85
2021/05/02 04:21:27;;;;;;;42.93;25.97;;;6.50;99.90;;;;;;4946903;29;20625;-84
2021/05/02 04:23:53;;;;;;;37.17;25.77;;;6.40;99.90;;;;;;4969088;28;20034;-84
2021/05/02 04:26:19;;;;;;;36.00;25.40;;;6.50;99.90;;;;;;4956952;28;20061;-85
2021/05/02 04:28:45;;;;;;;39.70;25.83;;;6.50;99.90;;;;;;4955813;28;20066;-86
2021/05/02 04:31:11;;;;;;;39.17;25.57;;;6.50;99.90;;;;;;4962682;28;20504;-85
2021/05/02 04:33:37;;;;;;;39.80;25.60;;;6.50;99.90;;;;;;4957495;28;20399;-85
2021/05/02 04:36:03;;;;;;;36.63;25.50;;;6.50;99.90;;;;;;4957511;28;20027;-85
2021/05/02 04:38:29;;;;;;;40.67;27.37;;;6.50;99.90;;;;;;4950569;28;20089;-85
2021/05/02 04:40:54;;;;;;;36.67;25.03;;;6.50;99.90;;;;;;4970455;28;20031;-85
2021/05/02 04:43:20;;;;;;;36.53;24.73;;;6.50;99.90;;;;;;4969311;28;20453;-86
2021/05/02 04:45:46;;;;;;;33.47;23.50;;;6.50;99.90;;;;;;4969160;28;20043;-86
2021/05/02 04:48:11;;;;;;;34.07;24.13;;;6.50;99.90;;;;;;4957466;28;20030;-86
2021/05/02 04:50:37;;;;;;;34.63;24.00;;;6.40;99.90;;;;;;4961204;28;20124;-86
2021/05/02 04:53:03;;;;;;;37.40;25.87;;;6.20;99.90;;;;;;4974769;28;20475;-86
2021/05/02 04:55:29;;;;;;;38.93;26.30;;;6.10;99.90;;;;;;4957861;28;20062;-86
2021/05/02 04:57:57;;;;;;;42.30;27.60;;;6.10;99.90;;;;;;4956630;28;20030;-86
2021/05/02 05:00:24;;;;;;;40.87;27.03;;;6.10;99.90;;;;;;4957854;28;20031;-86
2021/05/02 05:02:54;;;;;;;42.17;28.10;;;6.10;99.90;;;;;;4951200;28;20046;-86
2021/05/02 05:05:20;;;;;;;44.83;28.87;;;6.10;99.90;;;;;;4938409;29;20504;-86
2021/05/02 05:07:45;;;;;;;45.40;30.37;;;6.20;99.90;;;;;;4956213;28;20031;-86
2021/05/02 05:10:12;;;;;;;42.00;28.93;;;6.20;99.90;;;;;;4971894;28;20022;-86
2021/05/02 05:12:38;;;;;;;45.77;29.47;;;6.30;99.90;;;;;;4937838;28;20031;-86
2021/05/02 05:15:06;;;;;;;40.13;27.50;;;6.40;99.90;;;;;;4960559;28;20023;-86
2021/05/02 05:17:32;;;;;;;44.83;27.47;;;6.40;99.90;;;;;;4963993;28;20035;-86
2021/05/02 05:19:57;;;;;;;40.23;27.60;;;6.50;99.90;;;;;;4965781;28;20035;-86
2021/05/02 05:22:23;;;;;;;37.87;26.67;;;6.50;99.90;;;;;;4954032;28;20404;-86
2021/05/02 05:24:49;;;;;;;40.17;28.20;;;6.50;99.90;;;;;;4952961;28;20058;-86
2021/05/02 05:27:14;;;;;;;37.60;26.10;;;6.50;99.90;;;;;;4960076;28;20030;-86
2021/05/02 05:29:40;;;;;;;39.40;26.50;;;6.50;99.90;;;;;;4953375;28;20123;-86
2021/05/02 05:32:06;;;;;;;40.60;27.43;;;6.50;99.90;;;;;;4960117;28;20031;-85
2021/05/02 05:34:31;;;;;;;38.77;26.10;;;6.50;99.90;;;;;;4938441;28;20114;-85
2021/05/02 05:36:58;;;;;;;38.57;27.10;;;6.50;99.90;;;;;;4957193;28;20081;-86
2021/05/02 05:39:24;;;;;;;39.00;27.30;;;6.50;99.90;;;;;;4955245;28;20053;-85
2021/05/02 05:41:49;;;;;;;37.27;26.40;;;6.50;99.90;;;;;;4954941;28;20816;-86
2021/05/02 05:44:15;;;;;;;35.83;23.63;;;6.50;99.90;;;;;;4940233;29;20031;-86
2021/05/02 05:46:40;;;;;;;35.33;23.43;;;6.40;99.90;;;;;;4961564;28;20408;-85
2021/05/02 05:49:07;;;;;;;35.57;24.90;;;6.40;99.90;;;;;;4958138;28;20022;-85
2021/05/02 05:51:32;;;;;;;36.33;26.83;;;6.40;99.90;;;;;;4954936;28;20027;-85
2021/05/02 05:53:58;;;;;;;42.23;27.47;;;6.40;99.90;;;;;;4954495;28;20034;-85
2021/05/02 05:56:24;;;;;;;35.37;24.67;;;6.50;99.90;;;;;;4955012;28;20031;-86
2021/05/02 05:58:49;;;;;;;35.37;25.37;;;6.40;99.90;;;;;;4955610;28;20043;-86
2021/05/02 06:01:15;;;;;;;37.83;25.67;;;6.40;99.90;;;;;;4952199;28;20027;-86
2021/05/02 06:03:41;;;;;;;36.27;26.33;;;6.40;99.90;;;;;;4961333;28;20318;-86
2021/05/02 06:06:07;;;;;;;32.23;24.37;;;6.50;99.90;;;;;;4949484;28;20377;-86
2021/05/02 06:08:33;;;;;;;34.50;24.60;;;6.50;99.90;;;;;;4970266;28;20543;-86
2021/05/02 06:10:58;;;;;;;34.17;23.83;;;6.50;99.90;;;;;;4951426;29;20035;-85
2021/05/02 06:13:24;;;;;;;34.07;24.10;;;6.40;99.90;;;;;;4954831;28;20098;-85
2021/05/02 06:15:49;;;;;;;37.20;24.93;;;6.50;99.90;;;;;;4961080;28;20038;-86
2021/05/02 06:18:15;;;;;;;35.10;24.80;;;6.50;99.90;;;;;;4952022;28;20027;-85
2021/05/02 06:20:41;;;;;;;35.27;24.90;;;6.60;99.90;;;;;;4951766;28;20030;-86
2021/05/02 06:23:06;;;;;;;32.77;23.63;;;6.60;99.90;;;;;;4957854;28;20059;-86
2021/05/02 06:25:32;;;;;;;35.60;24.90;;;6.70;99.90;;;;;;4961243;28;20038;-86
2021/05/02 06:27:59;;;;;;;37.13;25.43;;;6.80;99.90;;;;;;4935799;28;20493;-86
2021/05/02 06:30:25;;;;;;;31.77;22.97;;;6.90;99.90;;;;;;4970969;28;20031;-85
2021/05/02 06:32:52;;;;;;;29.30;21.73;;;6.90;99.90;;;;;;4936611;28;20047;-86
2021/05/02 06:35:18;;;;;;;29.63;21.57;;;6.90;99.90;;;;;;4957555;28;20115;-86
2021/05/02 06:37:43;;;;;;;35.87;23.23;;;7.00;99.90;;;;;;4972147;28;20027;-86
2021/05/02 06:40:09;;;;;;;30.43;22.70;;;7.10;99.90;;;;;;4942774;29;20031;-86
2021/05/02 06:42:35;;;;;;;29.90;21.80;;;7.20;99.90;;;;;;4967870;28;20465;-86
2021/05/02 06:45:01;;;;;;;29.10;20.70;;;7.10;99.90;;;;;;4938551;28;20039;-86
2021/05/02 06:47:26;;;;;;;31.47;22.03;;;7.00;99.90;;;;;;4967887;28;20385;-86
2021/05/02 06:49:52;;;;;;;29.93;22.67;;;7.10;99.90;;;;;;4965481;28;20085;-86
2021/05/02 06:52:18;;;;;;;29.27;21.00;;;7.00;99.90;;;;;;4941775;29;20031;-86
2021/05/02 06:54:44;;;;;;;30.27;22.57;;;7.10;99.90;;;;;;4951973;28;20027;-86
2021/05/02 06:57:11;;;;;;;30.50;21.10;;;7.20;99.90;;;;;;4956447;28;20026;-86
2021/05/02 06:59:36;;;;;;;30.73;20.47;;;7.10;99.90;;;;;;4970624;28;20109;-86
2021/05/02 07:02:02;;;;;;;29.37;20.27;;;7.40;99.90;;;;;;4944782;29;20543;-86
2021/05/02 07:04:31;;;;;;;30.33;21.37;;;7.40;99.90;;;;;;4965248;28;20035;-86
2021/05/02 07:06:57;;;;;;;31.47;21.83;;;7.40;99.90;;;;;;4945908;28;20031;-86
2021/05/02 07:09:23;;;;;;;32.97;21.27;;;7.50;99.90;;;;;;4972353;28;20392;-86
2021/05/02 07:11:48;;;;;;;29.33;20.50;;;7.60;99.90;;;;;;4946543;29;20031;-86
2021/05/02 07:14:14;;;;;;;28.53;20.10;;;7.70;99.90;;;;;;4952062;28;20031;-86
2021/05/02 07:16:41;;;;;;;25.33;19.73;;;7.80;99.90;;;;;;4966530;28;20511;-86
2021/05/02 07:19:06;;;;;;;26.20;20.27;;;7.80;99.90;;;;;;4953976;28;20110;-86
2021/05/02 07:21:33;;;;;;;27.70;18.63;;;7.80;99.90;;;;;;4957232;28;20117;-87
2021/05/02 07:23:59;;;;;;;29.90;19.90;;;7.90;99.90;;;;;;4955159;28;20030;-85
2021/05/02 07:26:26;;;;;;;24.73;18.73;;;7.80;99.90;;;;;;4953591;28;20119;-87
2021/05/02 07:28:52;;;;;;;26.40;19.97;;;7.80;99.90;;;;;;4972090;28;20038;-87
2021/05/02 07:31:19;;;;;;;26.87;19.97;;;7.90;99.90;;;;;;4958278;28;20097;-87
2021/05/02 07:33:45;;;;;;;25.83;18.83;;;8.00;99.90;;;;;;4959206;28;20388;-87
2021/05/02 07:36:14;;;;;;;24.90;18.07;;;8.00;99.90;;;;;;4958385;28;20022;-87
2021/05/02 07:38:41;;;;;;;28.20;19.10;;;7.70;99.90;;;;;;4974974;28;20101;-87
2021/05/02 07:41:08;;;;;;;24.10;18.13;;;8.10;99.90;;;;;;4958855;28;20381;-87
2021/05/02 07:43:35;;;;;;;28.23;18.20;;;8.30;99.90;;;;;;4959240;28;20053;-88
2021/05/02 07:46:03;;;;;;;23.30;16.33;;;8.50;99.90;;;;;;4968286;28;20042;-87
2021/05/02 07:48:29;;;;;;;20.10;15.70;;;8.50;99.90;;;;;;4953631;28;20034;-87
2021/05/02 07:50:55;;;;;;;22.37;16.67;;;8.70;99.90;;;;;;4973417;28;20035;-87
2021/05/02 07:53:21;;;;;;;21.27;14.43;;;8.90;99.90;;;;;;4954201;28;20049;-87
2021/05/02 07:55:49;;;;;;;19.60;14.07;;;9.10;99.90;;;;;;4962125;28;20035;-87
2021/05/02 07:58:16;;;;;;;21.75;13.80;;;9.40;99.90;;;;;;4956978;28;20044;-86
2021/05/02 08:00:41;;;;;;;15.80;11.57;;;9.20;99.90;;;;;;4975232;28;20023;-86
2021/05/02 08:03:07;;;;;;;21.23;13.48;;;9.10;99.90;;;;;;4959114;28;20098;-88
2021/05/02 08:05:34;;;;;;;19.02;13.75;;;9.10;99.90;;;;;;4963205;28;20031;-88
2021/05/02 08:07:59;;;;;;;17.33;13.00;;;9.20;99.90;;;;;;4980553;28;20034;-86
2021/05/02 08:10:26;;;;;;;19.35;13.30;;;9.30;99.90;;;;;;4979308;28;20027;-86
2021/05/02 08:12:56;;;;;;;17.10;13.10;;;9.40;99.90;;;;;;4986490;28;20030;-86
2021/05/02 08:15:23;;;;;;;17.70;12.55;;;9.50;99.90;;;;;;4965357;28;20094;-87
2021/05/02 08:17:51;;;;;;;17.42;12.65;;;9.40;99.90;;;;;;4978827;28;20079;-86
2021/05/02 08:20:19;;;;;;;17.63;13.20;;;9.70;99.90;;;;;;4961848;28;20089;-86
2021/05/02 08:22:45;;;;;;;19.60;13.43;;;9.40;99.90;;;;;;4977675;28;20035;-87
2021/05/02 08:25:11;;;;;;;19.05;14.27;;;9.20;99.90;;;;;;4954419;28;20606;-86
2021/05/02 08:27:37;;;;;;;15.02;12.48;;;9.10;99.90;;;;;;4963786;28;20150;-87
2021/05/02 08:30:05;;;;;;;15.38;12.00;;;9.10;99.90;;;;;;4963041;28;20027;-86
2021/05/02 08:32:33;;;;;;;17.63;12.18;;;9.10;99.90;;;;;;4976307;28;20062;-87
2021/05/02 08:35:01;;;;;;;16.63;12.25;;;9.40;99.90;;;;;;4977355;28;20034;-87
2021/05/02 08:37:27;;;;;;;17.48;12.00;;;9.70;99.90;;;;;;4978304;28;20257;-86
2021/05/02 08:39:53;;;;;;;17.13;11.60;;;10.10;99.90;;;;;;4981779;28;20197;-87
2021/05/02 08:42:18;;;;;;;15.55;12.18;;;10.00;99.90;;;;;;4961837;28;20035;-86
2021/05/02 08:44:45;;;;;;;17.40;11.85;;;10.20;99.90;;;;;;4976061;28;20027;-86
2021/05/02 08:47:14;;;;;;;16.08;12.35;;;10.10;99.90;;;;;;4973148;28;20438;-88
2021/05/02 08:49:42;;;;;;;17.13;11.48;;;10.10;99.90;;;;;;4973666;28;20031;-87
2021/05/02 08:52:08;;;;;;;14.75;10.85;;;10.20;99.90;;;;;;4974948;28;20484;-87
2021/05/02 08:54:34;;;;;;;15.90;12.50;;;10.30;99.90;;;;;;4966507;28;20072;-86
2021/05/02 08:57:01;;;;;;;17.90;11.82;;;10.40;99.90;;;;;;4975359;28;20094;-87
2021/05/02 08:59:28;;;;;;;14.35;12.00;;;10.30;99.90;;;;;;4976960;28;20479;-87
2021/05/02 09:01:58;;;;;;;17.70;11.98;;;10.60;99.90;;;;;;4967103;28;20042;-88
2021/05/02 09:04:24;;;;;;;14.82;10.68;;;10.70;99.90;;;;;;4981692;28;20041;-87
2021/05/02 09:06:50;;;;;;;14.93;10.93;;;11.00;99.90;;;;;;4969356;28;20387;-85
2021/05/02 09:09:16;;;;;;;14.00;10.88;;;11.10;99.90;;;;;;4965979;28;20598;-87
2021/05/02 09:11:57;;;;;;;13.77;11.32;;;11.20;99.90;;;;;;4977503;28;20053;-87
2021/05/02 09:14:31;;;;;;;14.03;10.83;;;11.40;99.90;;;;;;4958488;28;20035;-87
2021/05/02 09:17:18;;;;;;;15.48;10.82;;;11.50;99.90;;;;;;4977137;28;20122;-87
2021/05/02 09:19:51;;;;;;;15.55;10.38;;;11.50;99.90;;;;;;4958617;28;20027;-87
2021/05/02 09:22:24;;;;;;;15.63;11.07;;;11.60;99.90;;;;;;4973958;28;20154;-87
2021/05/02 09:25:10;;;;;;;15.80;10.75;;;11.60;99.90;;;;;;4977825;28;20039;-87
2021/05/02 09:27:50;;;;;;;14.68;10.93;;;11.40;99.90;;;;;;4975876;28;20058;-87
2021/05/02 09:30:20;;;;;;;14.23;11.23;;;11.30;99.90;;;;;;4959278;28;20384;-87
2021/05/02 09:32:48;;;;;;;15.52;10.18;;;11.10;99.90;;;;;;4965858;28;20658;-86
2021/05/02 09:35:29;;;;;;;14.18;10.50;;;10.90;99.90;;;;;;4974073;28;20166;-87
2021/05/02 09:38:13;;;;;;;15.00;10.40;;;10.90;99.90;;;;;;4958217;28;20041;-87
2021/05/02 09:40:54;;;;;;;14.77;11.07;;;11.10;99.90;;;;;;4965171;28;20451;-87
2021/05/02 09:43:36;;;;;;;18.33;11.38;;;11.40;99.90;;;;;;4952363;28;20041;-86
2021/05/02 09:46:26;;;;;;;;;;;11.60;99.90;;;;;;4966636;28;20030;-87
2021/05/02 09:49:09;;;;;;;16.42;11.13;;;11.80;99.90;;;;;;4950679;28;19910;-87
2021/05/02 09:51:36;;;;;;;19.08;12.50;;;12.00;99.90;;;;;;4954672;28;20027;-87
2021/05/02 09:54:08;;;;;;;15.65;11.82;;;11.80;99.90;;;;;;4972609;28;20023;-86
2021/05/02 09:56:36;;;;;;;17.45;12.48;;;11.60;99.90;;;;;;4970021;28;20035;-86
2021/05/02 09:59:03;;;;;;;16.15;11.85;;;11.50;99.90;;;;;;4970997;28;20039;-87
2021/05/02 10:01:29;;;;;;;18.15;12.00;;;11.20;99.90;;;;;;4979769;28;20081;-86
2021/05/02 10:03:56;;;;;;;14.90;10.95;;;10.90;99.90;;;;;;4964342;28;20118;-86
2021/05/02 10:06:32;;;;;;;18.95;12.93;;;10.80;99.90;;;;;;4967683;28;20031;-87
2021/05/02 10:09:06;;;;;;;17.20;12.18;;;10.80;99.90;;;;;;4954246;28;20039;-87
2021/05/02 10:11:35;;;;;;;15.02;12.13;;;10.80;99.90;;;;;;4959296;28;20019;-89
2021/05/02 10:14:03;;;;;;;16.75;12.25;;;11.10;99.90;;;;;;4957570;28;20050;-89
2021/05/02 10:16:30;;;;;;;14.95;11.35;;;11.70;98.00;;;;;;4957333;28;20117;-89
2021/05/02 10:18:58;;;;;;;16.48;11.45;;;12.30;97.70;;;;;;4956225;28;20388;-89
2021/05/02 10:21:27;;;;;;;16.02;11.00;;;12.30;93.80;;;;;;4971864;28;20077;-89
2021/05/02 10:23:59;;;;;;;17.00;11.93;;;12.20;94.20;;;;;;4973615;28;20031;-93
2021/05/02 10:26:24;;;;;;;14.73;11.27;;;12.10;97.60;;;;;;4955824;28;20030;-90
2021/05/02 10:28:50;;;;;;;18.25;11.57;;;12.00;94.30;;;;;;4956374;28;20472;-91
2021/05/02 10:31:28;;;;;;;17.75;10.93;;;11.60;94.40;;;;;;4973245;28;20034;-91
2021/05/02 10:33:54;;;;;;;16.52;10.98;;;11.70;95.00;;;;;;4955856;28;20022;-91
2021/05/02 10:36:23;;;;;;;14.95;11.15;;;11.60;95.80;;;;;;4955898;28;20033;-91
2021/05/02 10:38:58;;;;;;;15.75;12.05;;;11.60;95.90;;;;;;4956536;28;20126;-91
2021/05/02 10:41:28;;;;;;;16.83;11.20;;;11.60;97.00;;;;;;4956984;28;20503;-91
2021/05/02 10:43:57;;;;;;;20.13;12.15;;;11.50;96.40;;;;;;4956577;28;20019;-91
2021/05/02 10:46:41;;;;;;;17.35;11.75;;;11.60;97.20;;;;;;4956974;28;20524;-92
2021/05/02 10:49:19;;;;;;;15.38;11.45;;;11.60;98.40;;;;;;4957104;28;20027;-91
2021/05/02 10:51:52;;;;;;;14.60;10.98;;;11.70;96.70;;;;;;4956938;28;20023;-91
2021/05/02 10:54:39;;;;;;;15.02;10.90;;;11.80;94.90;;;;;;4956865;28;20385;-92
2021/05/02 10:57:05;;;;;;;13.35;9.90;;;11.70;96.90;;;;;;4960438;28;20058;-90
2021/05/02 11:00:04;;;;;;;12.95;9.93;;;12.10;95.90;;;;;;4964839;28;20046;-91
2021/05/02 11:02:45;;;;;;;15.05;10.35;;;12.10;94.20;;;;;;4961989;28;20056;-92
2021/05/02 11:05:18;;;;;;;12.68;9.63;;;12.10;91.00;;;;;;4962149;28;20615;-92
2021/05/02 11:07:47;;;;;;;14.88;9.98;;;12.60;91.10;;;;;;4961370;28;20365;-92
2021/05/02 11:10:20;;;;;;;12.73;9.30;;;13.00;91.30;;;;;;4979389;28;20030;-92
2021/05/02 11:12:46;;;;;;;15.90;9.68;;;13.40;83.50;;;;;;4963917;28;20023;-93
2021/05/02 11:15:31;;;;;;;14.57;10.32;;;13.40;87.00;;;;;;4965016;28;20022;-93
2021/05/02 11:18:49;;;;;;;12.85;9.95;;;14.10;88.30;;;;;;4963144;28;20022;-93
2021/05/02 11:21:14;;;;;;;11.98;9.57;;;13.70;83.10;;;;;;4962733;28;20022;-92
2021/05/02 11:23:58;;;;;;;15.30;10.40;;;13.10;88.80;;;;;;4962562;28;20037;-92
2021/05/02 11:32:29;;;;;;;14.45;10.13;;;12.30;90.40;;;;;;5013858;28;20037;-92
2021/05/02 11:35:06;;;;;;;12.87;10.70;;;12.20;88.30;;;;;;5016960;28;20022;-93
2021/05/02 11:37:50;;;;;;;15.65;10.32;;;12.00;89.60;;;;;;5015078;28;20041;-91
2021/05/02 11:40:28;;;;;;;14.10;10.18;;;11.80;90.60;;;;;;5003831;28;20041;-91
2021/05/02 11:42:56;;;;;;;11.23;7.45;;;11.60;92.90;;;;;;4986930;28;20041;-92
2021/05/02 11:45:30;;;;;;;11.07;7.47;;;11.40;93.70;;;;;;5014126;28;20019;-92
2021/05/02 11:47:56;;;;;;;11.40;7.70;;;11.20;94.10;;;;;;4993195;28;20044;-90
2021/05/02 11:50:22;;;;;;;13.13;7.80;;;11.00;97.50;;;;;;5015413;28;20025;-91
2021/05/02 11:52:51;;;;;;;9.90;7.50;;;11.10;99.90;;;;;;5001067;28;20035;-91
2021/05/02 11:55:39;;;;;;;12.30;8.25;;;11.20;99.90;;;;;;5019684;28;20511;-90
2021/05/02 11:58:07;;;;;;;14.25;9.85;;;11.50;99.90;;;;;;5024866;28;20022;-92
2021/05/02 12:00:46;;;;;;;15.10;10.80;;;11.80;99.90;;;;;;5000462;28;20033;-91
2021/05/02 12:03:14;;;;;;;13.38;11.15;;;11.80;99.90;;;;;;5003698;28;20030;-91
2021/05/02 12:05:50;;;;;;;14.98;10.93;;;11.70;99.90;;;;;;5001905;28;20113;-92
2021/05/02 12:08:16;;;;;;;19.45;11.68;;;11.40;99.90;;;;;;5016559;28;20021;-92
2021/05/02 12:10:43;;;;;;;15.88;11.30;;;11.30;99.90;;;;;;5005885;28;20023;-93
2021/05/02 12:13:31;;;;;;;17.02;12.05;;;11.10;99.90;;;;;;5020510;28;20392;-92
2021/05/02 12:16:08;;;;;;;15.60;11.75;;;11.00;99.90;;;;;;5024686;28;20081;-94
2021/05/02 12:18:53;;;;;;;14.82;11.45;;;11.10;99.90;;;;;;5032258;28;20014;-94
2021/05/02 12:21:22;;;;;;;14.50;10.68;;;11.20;99.90;;;;;;5005998;28;20005;-92
2021/05/02 12:23:48;;;;;;;13.75;11.38;;;11.40;99.90;;;;;;5026414;28;20045;-93
2021/05/02 12:26:17;;;;;;;12.93;10.25;;;11.30;99.90;;;;;;5023912;28;20038;-94
2021/05/02 12:28:44;;;;;;;12.57;9.65;;;11.30;99.90;;;;;;5016111;28;20036;-93
2021/05/02 12:31:12;;;;;;;12.18;9.05;;;11.70;99.90;;;;;;5033886;28;20049;-94
2021/05/02 12:33:42;;;;;;;14.68;9.50;;;10.90;99.90;;;;;;5023316;28;20094;-94
2021/05/02 12:36:13;;;;;;;10.10;7.45;;;10.50;99.90;;;;;;5023221;28;20381;-94
2021/05/02 12:38:41;;;;;;;8.80;6.55;;;10.10;99.90;;;;;;5013559;28;20068;-94
2021/05/02 12:41:25;;;;;;;9.60;7.30;;;9.50;99.90;;;;;;5031194;28;20010;-94
2021/05/02 12:43:51;;;;;;;9.38;7.15;;;9.10;99.90;;;;;;5023603;28;20413;-93
2021/05/02 12:46:43;;;;;;;8.57;6.93;;;9.30;99.90;;;;;;5028598;28;20081;-94
2021/05/02 12:49:14;;;;;;;10.25;7.93;;;8.90;99.90;;;;;;4999069;28;20088;-94
2021/05/02 12:51:51;;;;;;;9.80;7.20;;;8.90;99.90;;;;;;5031647;28;20258;-93
2021/05/02 12:54:19;;;;;;;10.77;6.38;;;9.30;99.90;;;;;;5007922;28;20033;-94